Time;durP1;ratioP1;P1;durP2;ratioP2;P2;SDS_P1;SDS_P2;PMS_P1;PMS_P2;Temp;Humidity;BMP_temperature;BMP_pressure;BME280_temperature;BME280_humidity;BME280_pressure;Samples;Min_cycle;Max_cycle;Signal;HPM_P1;HPM_P2
2023/09/09 00:00:18;;;;;;;;;;;22.10;41.40;;;21.56;41.38;101473.06;12254716;19;20345;-87
2023/09/09 00:04:20;;;;;;;;;;;22.10;41.50;;;21.53;40.97;101482.16;12252781;19;19927;-87
2023/09/09 00:08:21;;;;;;;;;;;22.00;41.40;;;21.59;41.26;101500.19;12252871;19;19919;-87
2023/09/09 00:12:23;;;;;;;;;;;22.00;41.40;;;21.55;41.21;101496.16;12253626;19;20294;-87
2023/09/09 00:16:24;;;;;;;;;;;22.00;41.50;;;21.49;41.49;101488.69;12247722;19;20340;-87
2023/09/09 00:20:33;;;;;;;;;;;21.90;41.50;;;21.42;41.54;101492.91;12253142;19;20253;-87
2023/09/09 00:24:35;;;;;;;;;;;21.90;41.50;;;21.31;41.59;101482.38;12252923;19;19910;-87
2023/09/09 00:28:36;;;;;;;;;;;21.80;41.50;;;21.32;41.27;101492.84;12253417;19;19919;-87
2023/09/09 00:32:38;;;;;;;;;;;21.80;41.50;;;21.29;41.52;101490.47;12253440;19;19922;-87
2023/09/09 00:36:40;;;;;;;;;;;21.80;41.60;;;21.20;41.25;101478.84;12248033;19;19975;-87
2023/09/09 00:40:46;;;;;;;;;;;21.70;41.60;;;21.14;41.50;101470.53;12252357;19;20291;-87
2023/09/09 00:44:48;;;;;;;;;;;21.70;41.60;;;21.23;41.78;101496.31;12250218;19;19919;-87
2023/09/09 00:48:50;;;;;;;;;;;21.70;41.70;;;21.09;41.70;101475.41;12250641;19;19926;-87
2023/09/09 00:52:52;;;;;;;;;;;21.60;41.70;;;21.14;41.66;101497.13;12251112;19;20522;-87
2023/09/09 00:56:58;;;;;;;;;;;21.60;41.70;;;21.07;42.03;101486.19;12247531;19;19921;-87
2023/09/09 01:01:03;;;;;;;;;;;21.50;41.70;;;20.96;41.71;101473.03;12249833;19;19936;-87
2023/09/09 01:05:06;;;;;;;;;;;21.50;41.70;;;21.02;41.63;101490.22;12248781;19;19933;-87
2023/09/09 01:09:08;;;;;;;;;;;21.50;41.80;;;20.88;41.67;101481.66;12249563;19;19923;-87
2023/09/09 01:13:10;;;;;;;;;;;21.50;41.80;;;20.85;42.13;101467.81;12248698;19;19914;-87
2023/09/09 01:17:12;;;;;;;;;;;21.40;41.80;;;20.87;41.90;101487.91;12245779;19;20253;-87
2023/09/09 01:21:16;;;;;;;;;;;21.40;41.80;;;20.86;41.69;101490.72;12247833;19;19926;-87
2023/09/09 01:25:17;;;;;;;;;;;21.30;41.80;;;20.72;42.12;101476.00;12242301;19;19929;-87
2023/09/09 01:29:20;;;;;;;;;;;21.30;41.90;;;20.55;41.91;101459.69;12248820;19;20295;-87
2023/09/09 01:33:22;;;;;;;;;;;21.20;41.80;;;20.66;41.96;101472.06;12246544;19;20352;-87
2023/09/09 01:37:24;;;;;;;;;;;21.20;41.90;;;20.49;41.85;101438.09;12244769;19;19919;-87
2023/09/09 01:41:25;;;;;;;;;;;21.10;41.90;;;20.47;41.94;101448.88;12248975;19;19914;-87
2023/09/09 01:45:27;;;;;;;;;;;21.10;41.90;;;20.49;41.88;101456.69;12244973;19;19911;-87
2023/09/09 01:49:29;;;;;;;;;;;21.10;42.40;;;20.55;42.37;101480.94;12247745;19;19914;-87
2023/09/09 01:53:30;;;;;;;;;;;21.00;42.00;;;20.32;42.23;101440.41;12246692;19;19951;-87
2023/09/09 01:57:32;;;;;;;;;;;21.00;42.00;;;20.50;42.25;101469.00;12243406;19;19919;-87
2023/09/09 02:01:34;;;;;;;;;;;21.00;42.00;;;20.36;42.20;101453.41;12244376;19;20353;-87
2023/09/09 02:05:35;;;;;;;;;;;21.00;42.10;;;20.16;42.07;101425.91;12244714;19;19910;-87
2023/09/09 02:09:37;;;;;;;;;;;20.90;42.10;;;20.26;42.43;101450.69;12245252;19;19926;-87
2023/09/09 02:13:38;;;;;;;;;;;20.90;42.10;;;20.27;42.39;101458.50;12245842;19;20321;-87
2023/09/09 02:17:40;;;;;;;;;;;20.90;42.10;;;20.05;42.43;101429.47;12243359;19;20258;-87
2023/09/09 02:21:42;;;;;;;;;;;20.90;42.20;;;20.03;42.29;101429.59;12245856;19;19915;-87
2023/09/09 02:25:44;;;;;;;;;;;20.80;42.30;;;20.18;42.22;101458.47;12240776;19;19927;-87
2023/09/09 02:29:46;;;;;;;;;;;20.70;42.20;;;20.10;42.29;101459.09;12243474;19;20400;-87
2023/09/09 02:33:49;;;;;;;;;;;20.70;42.20;;;20.13;42.58;101458.00;12245289;19;19925;-87
2023/09/09 02:37:50;;;;;;;;;;;20.60;42.20;;;19.97;42.55;101439.88;12243584;19;19925;-87
2023/09/09 02:41:52;;;;;;;;;;;20.60;42.30;;;20.04;42.79;101454.31;12245560;19;19918;-87
2023/09/09 02:45:54;;;;;;;;;;;20.60;42.30;;;19.88;42.71;101431.72;12242471;19;20325;-87
2023/09/09 02:49:55;;;;;;;;;;;20.50;42.30;;;19.94;42.33;101437.50;12246275;19;19918;-87
2023/09/09 02:53:57;;;;;;;;;;;20.50;42.30;;;19.84;42.47;101427.63;12244691;19;19955;-87
2023/09/09 02:57:59;;;;;;;;;;;20.50;42.40;;;19.82;42.52;101432.25;12239827;19;19919;-87
2023/09/09 03:02:01;;;;;;;;;;;20.50;42.40;;;19.59;42.80;101414.72;12242519;19;19915;-87
2023/09/09 03:06:03;;;;;;;;;;;20.40;42.40;;;19.76;42.50;101440.69;12240111;19;20279;-87
2023/09/09 03:10:05;;;;;;;;;;;20.40;42.40;;;19.81;42.80;101448.28;12241927;19;19939;-87
2023/09/09 03:14:07;;;;;;;;;;;20.30;42.40;;;19.76;42.95;101443.34;12241830;19;20253;-87
2023/09/09 03:18:09;;;;;;;;;;;20.40;42.50;;;19.77;42.87;101442.38;12243903;19;19925;-87
2023/09/09 03:22:10;;;;;;;;;;;20.30;42.40;;;19.73;42.91;101448.91;12254782;19;19919;-87
2023/09/09 03:26:18;;;;;;;;;;;20.30;42.50;;;19.67;42.87;101444.94;12249161;19;19919;-87
2023/09/09 03:30:22;;;;;;;;;;;20.30;42.50;;;19.64;42.86;101447.81;12255213;19;19915;-87
2023/09/09 03:34:23;;;;;;;;;;;20.20;42.50;;;19.61;43.10;101441.94;12251831;19;19922;-87
2023/09/09 03:38:25;;;;;;;;;;;20.20;42.50;;;19.55;42.92;101445.94;12251020;19;19919;-87
2023/09/09 03:42:27;;;;;;;;;;;20.10;42.50;;;19.54;42.97;101441.59;12252583;19;19978;-87
2023/09/09 03:46:29;;;;;;;;;;;20.20;42.50;;;19.56;42.95;101454.72;12247364;19;19982;-87
2023/09/09 03:50:33;;;;;;;;;;;20.10;42.50;;;19.49;43.09;101456.19;12254330;19;19921;-87
2023/09/09 03:54:35;;;;;;;;;;;20.10;42.50;;;19.43;42.92;101463.66;12250578;19;20258;-87
2023/09/09 03:58:36;;;;;;;;;;;20.10;42.50;;;19.39;43.01;101459.59;12249226;19;20246;-87
2023/09/09 04:02:38;;;;;;;;;;;20.00;42.60;;;19.24;43.04;101435.16;12252356;19;19934;-87
2023/09/09 04:06:40;;;;;;;;;;;20.00;42.60;;;19.37;43.10;101465.97;12247970;19;19947;-88
2023/09/09 04:10:41;;;;;;;;;;;20.00;42.60;;;19.13;43.29;101424.59;12253026;19;19918;-87
2023/09/09 04:14:43;;;;;;;;;;;20.00;42.70;;;19.08;43.15;101426.75;12250367;19;20317;-87
2023/09/09 04:18:45;;;;;;;;;;;19.90;42.70;;;19.02;43.42;101417.50;12249533;19;19939;-87
2023/09/09 04:22:47;;;;;;;;;;;19.90;42.70;;;19.26;43.33;101464.19;12251740;19;20286;-87
2023/09/09 04:26:49;;;;;;;;;;;19.90;42.70;;;19.16;43.49;101444.69;12249257;19;19926;-87
2023/09/09 04:30:51;;;;;;;;;;;19.90;42.70;;;19.13;43.17;101440.47;12251622;19;20313;-87
2023/09/09 04:34:53;;;;;;;;;;;19.80;42.70;;;19.14;43.57;101449.25;12248848;19;19919;-87
2023/09/09 04:38:55;;;;;;;;;;;19.80;42.80;;;19.17;43.47;101460.47;12248291;19;19925;-87
2023/09/09 04:42:57;;;;;;;;;;;19.80;42.80;;;19.11;43.47;101457.44;12243499;19;19947;-87
2023/09/09 04:46:58;;;;;;;;;;;19.80;42.80;;;19.13;43.27;101466.13;12245231;19;19915;-87
2023/09/09 04:50:59;;;;;;;;;;;19.70;42.80;;;19.10;43.64;101476.97;12252191;19;19926;-87
2023/09/09 04:55:03;;;;;;;;;;;19.70;42.80;;;19.01;43.32;101455.53;12249282;19;19919;-87
2023/09/09 04:59:05;;;;;;;;;;;19.70;42.80;;;18.92;43.44;101450.13;12245268;19;19923;-87
2023/09/09 05:03:06;;;;;;;;;;;19.70;42.90;;;18.99;43.37;101462.75;12249875;19;19914;-87
2023/09/09 05:07:09;;;;;;;;;;;19.60;42.90;;;18.90;43.59;101455.56;12243991;19;19939;-87
2023/09/09 05:11:12;;;;;;;;;;;19.60;42.90;;;18.62;43.38;101422.44;12248268;19;20274;-87
2023/09/09 05:15:14;;;;;;;;;;;19.60;43.00;;;18.86;43.53;101461.19;12246716;19;19932;-87
2023/09/09 05:19:15;;;;;;;;;;;19.50;43.00;;;18.72;43.54;101443.72;12245405;19;20282;-87
2023/09/09 05:23:17;;;;;;;;;;;19.50;43.00;;;18.66;43.47;101454.78;12249145;19;19911;-87
2023/09/09 05:27:19;;;;;;;;;;;19.40;43.00;;;18.70;43.52;101466.81;12244885;19;20334;-87
2023/09/09 05:31:21;;;;;;;;;;;19.40;43.10;;;18.66;43.66;101468.88;12249397;19;19911;-87
2023/09/09 05:35:23;;;;;;;;;;;19.30;43.20;;;18.62;43.96;101472.69;12245793;19;19930;-87
2023/09/09 05:39:24;;;;;;;;;;;19.30;43.20;;;18.57;43.74;101467.75;12244674;19;19930;-87
2023/09/09 05:43:26;;;;;;;;;;;19.30;43.30;;;18.56;43.79;101465.25;12244105;19;20277;-87
2023/09/09 05:47:28;;;;;;;;;;;19.30;43.40;;;18.63;43.74;101474.38;12244149;19;19940;-87
2023/09/09 05:51:30;;;;;;;;;;;19.30;43.50;;;18.42;43.95;101433.72;12246208;19;20334;-87
2023/09/09 05:55:32;;;;;;;;;;;19.30;43.70;;;18.59;43.93;101470.28;12246004;19;19959;-87
2023/09/09 05:59:34;;;;;;;;;;;19.30;43.80;;;18.71;44.07;101479.06;12246136;19;19915;-87
2023/09/09 06:03:36;;;;;;;;;;;19.40;44.00;;;18.66;44.29;101473.28;12241594;19;19982;-88
2023/09/09 06:07:38;;;;;;;;;;;19.40;44.20;;;18.76;44.21;101471.66;12245395;19;20238;-87
2023/09/09 06:11:40;;;;;;;;;;;19.50;44.50;;;18.84;44.48;101477.19;12245593;19;19926;-87
2023/09/09 06:15:42;;;;;;;;;;;19.50;44.50;;;18.71;44.54;101437.59;12242909;19;19918;-88
2023/09/09 06:19:43;;;;;;;;;;;19.60;44.80;;;19.00;44.44;101469.72;12245570;19;19934;-88
2023/09/09 06:23:46;;;;;;;;;;;19.80;44.90;;;19.17;44.66;101486.09;12246033;19;19926;-87
2023/09/09 06:27:47;;;;;;;;;;;19.90;45.00;;;19.22;44.77;101482.09;12242728;19;19922;-88
2023/09/09 06:31:49;;;;;;;;;;;20.00;45.10;;;19.12;44.68;101451.19;12242549;19;19994;-86
2023/09/09 06:35:51;;;;;;;;;;;20.00;45.10;;;19.36;44.50;101474.84;12242725;19;19919;-86
2023/09/09 06:39:56;;;;;;;;;;;20.20;45.50;;;19.59;44.71;101494.22;12243962;19;19923;-86
2023/09/09 06:43:57;;;;;;;;;;;20.40;45.40;;;19.65;44.98;101501.66;12245273;19;19911;-89
2023/09/09 06:47:58;;;;;;;;;;;20.50;45.50;;;19.78;44.84;101504.19;12244418;19;19926;-86
2023/09/09 06:52:00;;;;;;;;;;;20.60;45.40;;;19.80;44.70;101495.16;12244508;19;20085;-86
2023/09/09 06:56:02;;;;;;;;;;;20.70;45.40;;;19.80;45.04;101481.88;12254099;19;20396;-87
2023/09/09 07:00:05;;;;;;;;;;;20.80;45.50;;;20.08;45.05;101517.56;12256901;19;19922;-86
2023/09/09 07:04:08;;;;;;;;;;;21.00;45.40;;;20.16;45.31;101511.63;12253702;19;19922;-86
2023/09/09 07:08:09;;;;;;;;;;;21.00;45.50;;;20.25;45.14;101515.31;12257320;19;20253;-86
2023/09/09 07:12:11;;;;;;;;;;;21.20;45.50;;;20.40;45.50;101522.00;12254247;19;20273;-87
2023/09/09 07:16:13;;;;;;;;;;;21.30;45.60;;;20.49;45.40;101507.09;12251150;19;19919;-85
2023/09/09 07:20:15;;;;;;;;;;;21.40;45.60;;;20.62;45.32;101510.44;12248037;19;19922;-84
2023/09/09 07:24:17;;;;;;;;;;;21.50;45.70;;;20.78;45.44;101502.84;12254614;19;19938;-84
2023/09/09 07:28:19;;;;;;;;;;;21.70;45.80;;;20.87;45.37;101501.19;12254847;19;19923;-84
2023/09/09 07:32:20;;;;;;;;;;;21.80;46.60;;;20.87;45.60;101463.19;12255308;19;19915;-86
2023/09/09 07:36:22;;;;;;;;;;;22.00;46.40;;;21.14;45.39;101486.47;12252132;19;20265;-87
2023/09/09 07:40:23;;;;;;;;;;;22.20;46.30;;;21.27;45.63;101483.59;12252755;19;19941;-84
2023/09/09 07:44:25;;;;;;;;;;;22.30;46.10;;;21.45;45.60;101486.47;12249785;19;19918;-84
2023/09/09 07:48:27;;;;;;;;;;;22.50;46.10;;;21.67;45.97;101496.03;12251587;19;19926;-85
2023/09/09 07:52:29;;;;;;;;;;;22.70;46.20;;;21.85;45.89;101492.53;12251089;19;20709;-84
2023/09/09 07:56:30;;;;;;;;;;;22.90;46.40;;;22.09;45.93;101491.28;12246253;19;19919;-83
2023/09/09 08:00:33;;;;;;;;;;;23.20;46.90;;;22.40;45.99;101507.94;12251363;19;19923;-83
2023/09/09 08:04:35;;;;;;;;;;;23.40;46.20;;;22.60;46.17;101502.56;12246056;19;19986;-83
2023/09/09 08:08:36;;;;;;;;;;;23.70;46.50;;;22.86;45.83;101498.28;12251045;19;19922;-83
2023/09/09 08:12:38;;;;;;;;;;;23.90;46.60;;;23.08;45.81;101496.25;12251601;19;19915;-83
2023/09/09 08:16:40;;;;;;;;;;;24.10;46.50;;;23.33;45.81;101503.56;12247237;19;19931;-83
2023/09/09 08:20:42;;;;;;;;;;;24.40;46.20;;;23.55;46.16;101494.31;12249615;19;19919;-83
2023/09/09 08:24:43;;;;;;;;;;;24.70;46.40;;;23.86;46.32;101501.97;12246620;19;19935;-83
2023/09/09 08:28:45;;;;;;;;;;;24.90;45.80;;;24.08;45.92;101500.66;12250052;19;19930;-84
2023/09/09 08:32:46;;;;;;;;;;;25.20;45.60;;;24.29;46.19;101506.50;12249236;19;19915;-83
2023/09/09 08:36:47;;;;;;;;;;;25.40;45.50;;;24.41;45.88;101495.56;12246570;19;19915;-84
2023/09/09 08:41:05;;;;;;;;;;;25.60;45.20;;;24.66;45.99;101505.47;12246990;19;19931;-83
2023/09/09 08:45:16;;;;;;;;;;;25.80;45.30;;;24.87;45.64;101506.88;12246303;19;19996;-84
2023/09/09 08:49:20;;;;;;;;;;;26.00;45.10;;;25.03;45.86;101523.00;12247961;19;19975;-83
2023/09/09 08:53:25;;;;;;;;;;;26.20;45.00;;;25.19;45.98;101511.56;12249436;19;19942;-83
2023/09/09 08:57:28;;;;;;;;;;;26.30;44.90;;;25.41;45.90;101507.50;12241367;19;19914;-84
2023/09/09 09:01:30;;;;;;;;;;;26.50;44.70;;;25.57;45.45;101498.66;12247773;19;20274;-84
2023/09/09 09:05:33;;;;;;;;;;;26.70;44.70;;;25.83;45.70;101512.78;12240256;19;19930;-83
2023/09/09 09:09:34;;;;;;;;;;;26.90;44.50;;;25.97;45.43;101495.22;12249096;19;19922;-83
2023/09/09 09:13:36;;;;;;;;;;;27.10;44.60;;;26.19;45.69;101503.59;12245750;19;19950;-84
2023/09/09 09:17:40;;;;;;;;;;;27.40;44.50;;;26.39;45.54;101504.91;12244098;19;19915;-84
2023/09/09 09:21:42;;;;;;;;;;;27.50;43.60;;;26.59;45.54;101499.22;12246318;19;19926;-84
2023/09/09 09:25:46;;;;;;;;;;;27.70;43.90;;;26.82;45.36;101510.06;12244910;19;19926;-84
2023/09/09 09:29:48;;;;;;;;;;;27.90;43.80;;;26.92;45.50;101498.13;12247217;19;19923;-84
2023/09/09 09:33:51;;;;;;;;;;;28.10;43.60;;;27.19;45.44;101505.91;12246365;19;19922;-84
2023/09/09 09:38:05;;;;;;;;;;;28.30;43.90;;;27.37;45.01;101498.44;12245488;19;19936;-83
2023/09/09 09:42:10;;;;;;;;;;;28.40;43.40;;;27.53;45.09;101494.81;12246060;19;19923;-84
2023/09/09 09:46:19;;;;;;;;;;;28.60;43.20;;;27.75;44.99;101491.31;12256429;19;19911;-84
2023/09/09 09:50:30;;;;;;;;;;;28.80;43.00;;;27.92;44.84;101485.84;12260358;19;19923;-85
2023/09/09 09:54:33;;;;;;;;;;;29.00;43.00;;;28.08;44.64;101479.50;12256706;19;20130;-84
2023/09/09 09:58:36;;;;;;;;;;;29.20;41.50;;;28.33;44.78;101486.34;12252793;19;19933;-84
2023/09/09 10:02:38;;;;;;;;;;;29.50;42.40;;;28.45;44.59;101467.94;12241598;19;20015;-83
2023/09/09 10:06:41;;;;;;;;;;;29.60;41.00;;;28.63;44.79;101460.34;12236976;19;19914;-84
2023/09/09 10:10:57;;;;;;;;;;;29.80;41.20;;;28.81;44.49;101468.03;12240125;19;19919;-84
2023/09/09 10:15:02;;;;;;;;;;;29.90;42.10;;;29.06;44.06;101473.97;12238759;19;19978;-83
2023/09/09 10:19:04;;;;;;;;;;;30.10;40.50;;;29.24;43.73;101465.47;12237101;19;20336;-83
2023/09/09 10:23:06;;;;;;;;;;;30.30;41.00;;;29.36;44.09;101455.03;12241720;19;20347;-84
2023/09/09 10:27:08;;;;;;;;;;;30.50;38.80;;;29.47;43.56;101438.38;12234004;19;19926;-84
2023/09/09 10:31:13;;;;;;;;;;;30.60;39.30;;;29.68;43.70;101450.22;12239401;19;19934;-84
2023/09/09 10:35:16;;;;;;;;;;;30.70;41.50;;;29.85;43.39;101448.91;12236291;19;20380;-83
2023/09/09 10:39:21;;;;;;;;;;;30.90;38.50;;;30.00;43.02;101443.44;12239321;19;19915;-81
2023/09/09 10:43:22;;;;;;;;;;;31.10;39.20;;;30.14;42.92;101449.78;12238982;19;19929;-81
2023/09/09 10:47:24;;;;;;;;;;;31.20;39.20;;;30.30;42.67;101452.19;12226517;19;19922;-81
2023/09/09 10:51:27;;;;;;;;;;;31.30;39.60;;;30.43;42.63;101451.41;12238931;19;19927;-81
2023/09/09 10:55:29;;;;;;;;;;;31.40;39.70;;;30.56;42.81;101451.50;12233688;19;20691;-81
2023/09/09 10:59:32;;;;;;;;;;;31.50;38.80;;;30.67;42.78;101449.28;12236374;19;20594;-83
2023/09/09 11:03:47;;;;;;;;;;;31.60;40.20;;;30.78;42.54;101457.63;12240368;19;19961;-83
2023/09/09 11:07:48;;;;;;;;;;;31.80;38.30;;;30.79;42.18;101436.91;12238660;19;19923;-83
2023/09/09 11:11:49;;;;;;;;;;;31.80;38.30;;;30.92;42.01;101442.38;12239429;19;19918;-83
2023/09/09 11:15:51;;;;;;;;;;;31.90;36.80;;;30.97;41.77;101433.66;12238466;19;19938;-83
2023/09/09 11:19:53;;;;;;;;;;;31.90;36.70;;;31.03;41.52;101435.56;12238819;19;20346;-83
2023/09/09 11:23:56;;;;;;;;;;;31.90;37.90;;;31.10;41.24;101439.09;12238321;19;19938;-83
2023/09/09 11:27:57;;;;;;;;;;;32.00;36.70;;;31.20;41.17;101433.31;12237320;19;19930;-83
2023/09/09 11:31:58;;;;;;;;;;;32.00;38.30;;;31.27;41.19;101434.16;12238793;19;20571;-84
2023/09/09 11:36:00;;;;;;;;;;;32.10;38.90;;;31.34;41.05;101426.91;12235503;19;19923;-83
2023/09/09 11:40:02;;;;;;;;;;;32.20;36.80;;;31.34;41.08;101413.41;12242318;19;19943;-84
2023/09/09 11:44:08;;;;;;;;;;;32.20;38.40;;;31.49;40.59;101416.81;12249898;19;19914;-85
2023/09/09 11:48:13;;;;;;;;;;;32.30;39.40;;;31.51;40.70;101392.28;12252062;19;19964;-84
2023/09/09 11:52:18;;;;;;;;;;;32.50;39.30;;;31.70;40.58;101404.13;12250144;19;20593;-84
2023/09/09 11:56:20;;;;;;;;;;;32.50;39.20;;;31.72;40.62;101394.78;12247769;19;20265;-84
2023/09/09 12:00:22;;;;;;;;;;;32.60;33.70;;;31.81;40.44;101400.81;12250495;19;19923;-84
2023/09/09 12:04:23;;;;;;;;;;;32.70;38.40;;;31.88;40.20;101398.09;12248285;19;19927;-84
2023/09/09 12:08:26;;;;;;;;;;;32.70;38.20;;;31.86;40.00;101381.25;12250935;19;19919;-84
2023/09/09 12:12:28;;;;;;;;;;;32.80;37.80;;;32.02;39.87;101394.34;12246158;19;19926;-84
2023/09/09 12:16:31;;;;;;;;;;;32.80;37.20;;;32.05;39.69;101388.53;12242809;19;19943;-83
2023/09/09 12:20:32;;;;;;;;;;;32.80;37.90;;;32.14;39.56;101381.88;12248496;19;19915;-84
2023/09/09 12:24:43;;;;;;;;;;;32.90;37.90;;;32.21;39.73;101392.66;12247270;19;19941;-84
2023/09/09 12:28:47;;;;;;;;;;;33.00;37.30;;;32.21;39.37;101375.63;12250507;19;19919;-84
2023/09/09 12:32:48;;;;;;;;;;;33.00;37.30;;;32.24;39.38;101380.59;12247710;19;19931;-83
2023/09/09 12:36:55;;;;;;;;;;;33.00;36.90;;;32.35;39.21;101388.03;12243757;19;19914;-83
2023/09/09 12:41:07;;;;;;;;;;;33.10;37.60;;;32.40;39.12;101380.13;12248722;19;20337;-83
2023/09/09 12:45:11;;;;;;;;;;;33.10;36.50;;;32.37;39.15;101369.75;12245193;19;20586;-83
2023/09/09 12:49:12;;;;;;;;;;;33.20;37.10;;;32.48;39.04;101377.22;12248067;19;19923;-85
2023/09/09 12:53:14;;;;;;;;;;;33.20;36.10;;;32.52;38.72;101383.88;12242111;19;19934;-84
2023/09/09 12:57:15;;;;;;;;;;;33.30;38.30;;;32.55;38.50;101371.78;12244899;19;19911;-84
2023/09/09 13:01:17;;;;;;;;;;;33.30;38.00;;;32.60;38.52;101369.28;12246584;19;19922;-84
2023/09/09 13:05:19;;;;;;;;;;;33.30;37.90;;;32.66;38.49;101370.28;12245575;19;20001;-83
2023/09/09 13:09:20;;;;;;;;;;;33.40;37.50;;;32.70;38.53;101380.44;12246908;19;19962;-83
2023/09/09 13:13:21;;;;;;;;;;;33.40;37.70;;;32.74;38.22;101372.75;12248858;19;20403;-84
2023/09/09 13:17:23;;;;;;;;;;;33.50;37.30;;;32.75;38.21;101366.28;12241788;19;20349;-83
2023/09/09 13:21:24;;;;;;;;;;;33.50;37.40;;;32.79;38.25;101370.22;12247315;19;19911;-83
2023/09/09 13:25:25;;;;;;;;;;;33.50;36.80;;;32.77;38.19;101364.19;12245731;19;19974;-83
2023/09/09 13:29:27;;;;;;;;;;;33.50;37.20;;;32.86;38.01;101367.47;12243865;19;19930;-83
2023/09/09 13:33:32;;;;;;;;;;;33.50;36.60;;;32.89;38.14;101362.44;12239083;19;20220;-84
2023/09/09 13:37:34;;;;;;;;;;;33.60;37.00;;;32.92;38.21;101358.47;12240876;19;19948;-84
2023/09/09 13:41:35;;;;;;;;;;;33.60;37.20;;;32.94;37.86;101361.78;12245386;19;19919;-83
2023/09/09 13:45:36;;;;;;;;;;;33.70;37.20;;;32.97;37.81;101358.66;12241736;19;19918;-84
2023/09/09 13:49:38;;;;;;;;;;;33.60;35.00;;;32.98;37.95;101361.16;12244947;19;20261;-84
2023/09/09 13:53:40;;;;;;;;;;;33.60;36.60;;;32.95;37.57;101352.66;12242276;19;19929;-84
2023/09/09 13:57:41;;;;;;;;;;;33.60;35.20;;;33.02;37.18;101356.97;12243146;19;19929;-84
2023/09/09 14:01:43;;;;;;;;;;;33.70;37.10;;;33.02;37.49;101356.97;12242436;19;19937;-84
2023/09/09 14:05:44;;;;;;;;;;;33.70;37.10;;;33.05;37.06;101353.88;12238385;19;19922;-84
2023/09/09 14:09:45;;;;;;;;;;;33.70;37.00;;;33.07;37.22;101350.09;12243652;19;19956;-84
2023/09/09 14:13:47;;;;;;;;;;;33.70;37.20;;;33.07;36.90;101355.50;12241937;19;19923;-81
2023/09/09 14:17:48;;;;;;;;;;;33.70;36.50;;;33.06;37.21;101338.44;12242126;19;19922;-84
2023/09/09 14:21:50;;;;;;;;;;;33.70;37.30;;;33.00;36.89;101326.63;12241078;19;19928;-83
2023/09/09 14:25:51;;;;;;;;;;;33.70;32.70;;;33.05;37.02;101334.91;12239404;19;19923;-83
2023/09/09 14:29:53;;;;;;;;;;;33.60;36.00;;;33.05;36.84;101332.22;12241646;19;19922;-83
2023/09/09 14:33:55;;;;;;;;;;;33.60;36.70;;;33.01;36.77;101328.28;12242479;19;19935;-84
2023/09/09 14:37:56;;;;;;;;;;;33.60;35.60;;;33.00;36.96;101326.63;12239886;19;19927;-83
2023/09/09 14:41:58;;;;;;;;;;;33.60;36.00;;;33.08;36.56;101332.78;12239946;19;19918;-84
2023/09/09 14:46:00;;;;;;;;;;;33.60;35.70;;;32.96;36.38;101308.28;12240130;19;19927;-84
2023/09/09 14:50:01;;;;;;;;;;;33.60;36.30;;;32.72;36.78;101272.84;12239366;19;19933;-82
2023/09/09 14:54:04;;;;;;;;;;;33.60;35.40;;;33.05;36.19;101324.09;12242251;19;19915;-82
2023/09/09 14:58:05;;;;;;;;;;;33.60;35.80;;;32.96;36.03;101308.28;12238514;19;19986;-82
2023/09/09 15:02:07;;;;;;;;;;;33.60;36.00;;;33.01;36.25;101312.03;12237847;19;19935;-82
2023/09/09 15:06:09;;;;;;;;;;;33.60;36.40;;;33.00;36.29;101304.09;12232627;19;20258;-82
2023/09/09 15:10:10;;;;;;;;;;;33.50;35.50;;;32.92;35.89;101291.69;12242120;19;19946;-82
2023/09/09 15:14:11;;;;;;;;;;;33.50;36.20;;;32.96;36.46;101297.47;12232244;19;19946;-83
2023/09/09 15:18:13;;;;;;;;;;;33.50;36.50;;;32.98;36.10;101304.31;12246766;19;19938;-82
2023/09/09 15:22:14;;;;;;;;;;;33.40;35.70;;;32.95;36.20;101298.53;12247233;19;19923;-82
2023/09/09 15:26:18;;;;;;;;;;;33.50;36.30;;;32.96;35.92;101303.69;12245560;19;19939;-83
2023/09/09 15:30:20;;;;;;;;;;;33.50;36.40;;;32.95;35.89;101303.94;12249210;19;20329;-82
2023/09/09 15:34:22;;;;;;;;;;;33.40;35.60;;;32.92;36.01;101294.38;12248298;19;19930;-82
2023/09/09 15:38:27;;;;;;;;;;;33.50;36.50;;;32.96;35.80;101292.88;12246010;19;19930;-82
2023/09/09 15:42:29;;;;;;;;;;;33.50;36.10;;;32.96;35.66;101295.59;12248039;19;19922;-82
2023/09/09 15:46:32;;;;;;;;;;;33.50;36.60;;;33.00;35.74;101301.38;12245893;19;20586;-82
2023/09/09 15:50:34;;;;;;;;;;;33.50;36.40;;;32.99;35.66;101299.72;12243116;19;19915;-82
2023/09/09 15:54:36;;;;;;;;;;;33.40;36.20;;;32.94;35.75;101294.16;12244346;19;20274;-84
2023/09/09 15:58:39;;;;;;;;;;;33.50;36.20;;;32.91;35.80;101294.59;12242227;19;19927;-83
2023/09/09 16:02:43;;;;;;;;;;;33.50;36.40;;;32.96;35.59;101302.88;12244512;19;20352;-82
2023/09/09 16:06:45;;;;;;;;;;;33.50;35.80;;;32.94;35.79;101305.78;12242265;19;19966;-82
2023/09/09 16:10:49;;;;;;;;;;;33.40;36.30;;;32.72;35.44;101272.84;12245853;19;19915;-82
2023/09/09 16:14:51;;;;;;;;;;;33.50;36.40;;;32.69;35.65;101267.06;12241859;19;20725;-83
2023/09/09 16:18:52;;;;;;;;;;;33.40;36.70;;;32.80;35.28;101293.41;12240154;19;19940;-83
2023/09/09 16:22:53;;;;;;;;;;;33.30;36.60;;;32.83;35.51;101298.38;12232645;19;20376;-82
2023/09/09 16:26:55;;;;;;;;;;;33.30;36.90;;;32.76;35.43;101293.03;12239832;19;20746;-82
2023/09/09 16:30:56;;;;;;;;;;;33.20;36.80;;;32.68;35.56;101301.41;12242215;19;19915;-82
2023/09/09 16:34:58;;;;;;;;;;;33.10;36.90;;;32.58;35.51;101296.44;12242326;19;19936;-83
2023/09/09 16:38:59;;;;;;;;;;;33.00;37.00;;;32.51;35.46;101301.06;12240228;19;19918;-82
2023/09/09 16:43:02;;;;;;;;;;;32.90;37.10;;;32.39;35.71;101297.34;12244075;19;19926;-82
2023/09/09 16:47:04;;;;;;;;;;;32.80;37.20;;;32.22;35.31;101288.06;12238504;19;19939;-82
2023/09/09 16:51:07;;;;;;;;;;;32.60;37.10;;;32.14;35.52;101306.19;12242547;19;19919;-82
2023/09/09 16:55:09;;;;;;;;;;;32.50;37.20;;;31.99;35.48;101293.97;12241124;19;19919;-82
2023/09/09 16:59:10;;;;;;;;;;;32.30;37.20;;;31.87;35.38;101305.41;12242262;19;19923;-82
2023/09/09 17:03:11;;;;;;;;;;;32.10;37.20;;;31.73;35.64;101301.06;12241603;19;19974;-82
2023/09/09 17:07:13;;;;;;;;;;;32.00;37.20;;;31.58;35.33;101300.47;12241438;19;19927;-82
2023/09/09 17:11:15;;;;;;;;;;;31.90;37.30;;;31.45;35.50;101298.63;12240263;19;19943;-82
2023/09/09 17:15:16;;;;;;;;;;;31.70;37.20;;;31.34;35.51;101305.44;12240593;19;19931;-83
2023/09/09 17:19:18;;;;;;;;;;;31.60;37.30;;;31.20;35.58;101304.63;12239525;19;19946;-83
2023/09/09 17:23:19;;;;;;;;;;;31.40;37.20;;;30.98;35.65;101290.50;12242762;19;20341;-83
2023/09/09 17:27:21;;;;;;;;;;;31.30;37.30;;;30.92;35.77;101301.25;12243733;19;19935;-83
2023/09/09 17:31:22;;;;;;;;;;;31.10;37.20;;;30.78;35.81;101314.69;12246975;19;19919;-82
2023/09/09 17:35:27;;;;;;;;;;;31.00;37.30;;;30.55;35.67;101295.34;12249913;19;19983;-84
2023/09/09 17:39:28;;;;;;;;;;;30.80;37.30;;;30.49;35.87;101309.63;12250212;19;20300;-85
2023/09/09 17:43:30;;;;;;;;;;;30.70;37.30;;;30.27;35.31;101295.44;12228096;19;19918;-84
2023/09/09 17:47:32;;;;;;;;;;;30.60;37.70;;;30.19;35.82;101307.19;12239940;19;20350;-85
2023/09/09 17:51:34;;;;;;;;;;;30.40;37.30;;;30.10;35.53;101321.84;12244280;19;19918;-84
2023/09/09 17:55:36;;;;;;;;;;;30.30;37.30;;;30.01;35.82;101329.28;12243060;19;20298;-84
2023/09/09 17:59:37;;;;;;;;;;;30.20;37.40;;;29.87;35.65;101335.63;12240172;19;19918;-85
2023/09/09 18:03:39;;;;;;;;;;;30.00;37.40;;;29.74;35.94;101336.34;12240902;19;19938;-84
2023/09/09 18:07:41;;;;;;;;;;;29.90;37.50;;;29.62;35.93;101343.25;12239070;19;19937;-84